Zanesville Municipal Airport Zanesville US
ICAO: KZZV
IATA: ZZV
Category: Medium
Scheduled Services: No

Elevation: 900 ft
TransAlt. 18000 ft.

Airport Communications:
ASOS:111.4
INDIANAPOLIS CNTR:124.45
CLEVELAND RDO:122.2
CTAF/UNICOM:123

KZZV Zoom In..

Runways:

(A) RW 04 length 5000 ft width 150 ft
---- / hdg 40

(B) RW 16 length 4999 ft width 150 ft
---- / hdg 158

(C) RW 22 length 5000 ft width 150 ft
ILS 109.95 / hdg 220

(D) RW 34 length 4999 ft width 150 ft
---- / hdg 338

Location; KZZV
Day. 30 / Time. 19.53 Zulu
* Altimeter: 30.08
* Temperature: 22° c. 71.6°f.
* Wind from: 300° Speed 09 kn.
Dewpoint: 11° c.
Visibility: 10 Statute Miles.
Clouds: Scattered 6500 ft.

KZZV 301953Z AUTO 30009KT 10SM SCT065 22/11 A3008 RMK AO2 SLP181 T02220106


Wind From 300°
Speed 09 kn.

 
 
jpsmedia worldairports.se 2020   terms of use